Time;durP1;ratioP1;P1;durP2;ratioP2;P2;SDS_P1;SDS_P2;PMS_P1;PMS_P2;Temp;Humidity;BMP_temperature;BMP_pressure;BME280_temperature;BME280_humidity;BME280_pressure;Samples;Min_cycle;Max_cycle;Signal;HPM_P1;HPM_P2
2022/11/03 00:01:38;;;;;;;7.78;5.97;;;6.60;99.90;;;;;;6207771;23;20202;-88
2022/11/03 00:04:06;;;;;;;12.18;7.60;;;7.80;99.90;;;;;;6200536;23;20202;-87
2022/11/03 00:06:35;;;;;;;11.32;6.38;;;7.90;99.90;;;;;;6204188;23;20176;-87
2022/11/03 00:09:03;;;;;;;9.60;6.35;;;8.70;99.90;;;;;;6207106;23;20180;-87
2022/11/03 00:11:32;;;;;;;11.20;4.95;;;7.90;99.90;;;;;;6208130;23;20188;-87
2022/11/03 00:13:59;;;;;;;8.65;5.93;;;7.70;99.90;;;;;;6213536;23;20216;-87
2022/11/03 00:16:26;;;;;;;13.95;7.03;;;;;;;;;;6207927;23;20181;-88
2022/11/03 00:18:54;;;;;;;7.22;6.15;;;7.70;99.90;;;;;;6191003;23;20165;-87
2022/11/03 00:21:21;;;;;;;10.10;5.82;;;7.40;99.90;;;;;;6192844;23;20194;-87
2022/11/03 00:23:50;;;;;;;10.80;6.70;;;;;;;;;;6206704;23;20198;-87
2022/11/03 00:26:19;;;;;;;12.52;5.95;;;7.40;99.90;;;;;;6206348;23;20176;-88
2022/11/03 00:28:47;;;;;;;7.45;5.88;;;7.30;99.90;;;;;;6193986;23;20180;-87
2022/11/03 00:31:16;;;;;;;8.68;5.63;;;7.30;99.90;;;;;;6191059;23;20586;-87
2022/11/03 00:33:43;;;;;;;9.98;6.07;;;7.50;99.90;;;;;;6193759;23;20176;-87
2022/11/03 00:36:13;;;;;;;7.80;5.75;;;7.60;99.90;;;;;;6195202;23;20509;-88
2022/11/03 00:38:40;;;;;;;9.32;6.15;;;7.30;99.90;;;;;;6194012;23;20186;-87
2022/11/03 00:41:09;;;;;;;8.85;6.35;;;7.30;99.90;;;;;;6195355;23;20200;-87
2022/11/03 00:43:36;;;;;;;7.78;5.88;;;;;;;;;;6197779;23;20204;-87
2022/11/03 00:46:05;;;;;;;10.43;5.43;;;6.90;99.90;;;;;;6192482;23;20187;-87
2022/11/03 00:48:32;;;;;;;8.90;5.40;;;7.50;99.90;;;;;;6192543;23;20230;-87
2022/11/03 00:51:08;;;;;;;11.27;6.03;;;6.90;99.90;;;;;;6191230;23;20509;-87
2022/11/03 00:53:36;;;;;;;13.38;5.13;;;7.20;99.90;;;;;;6191741;23;20171;-87
2022/11/03 00:56:03;;;;;;;12.70;6.25;;;;;;;;;;6194172;23;20176;-87
2022/11/03 00:58:32;;;;;;;7.72;6.55;;;7.30;99.90;;;;;;6191379;23;20200;-87
2022/11/03 01:01:00;;;;;;;8.02;6.63;;;7.60;99.90;;;;;;6189770;23;20203;-87
2022/11/03 01:03:27;;;;;;;10.85;6.47;;;6.60;99.90;;;;;;6191589;23;20192;-87
2022/11/03 01:08:40;;;;;;;12.68;6.72;;;6.70;99.90;;;;;;6191644;23;20159;-87
2022/11/03 01:13:54;;;;;;;10.82;6.78;;;7.30;99.90;;;;;;6190310;23;20210;-88
2022/11/03 01:16:21;;;;;;;11.38;8.13;;;6.60;99.90;;;;;;6190308;23;20176;-88
2022/11/03 01:18:48;;;;;;;9.95;7.55;;;6.90;99.90;;;;;;6208073;23;20215;-89
2022/11/03 01:21:15;;;;;;;11.23;8.00;;;6.90;99.90;;;;;;6213588;23;20198;-88
2022/11/03 01:23:41;;;;;;;9.60;6.88;;;7.20;99.90;;;;;;6208408;23;20196;-88
2022/11/03 01:26:10;;;;;;;12.65;7.28;;;6.70;99.90;;;;;;6192271;23;20645;-88
2022/11/03 01:28:37;;;;;;;11.27;7.22;;;7.10;99.90;;;;;;6190991;23;20180;-87
2022/11/03 01:31:07;;;;;;;10.65;6.85;;;6.90;99.90;;;;;;6188936;23;20576;-88
2022/11/03 01:33:34;;;;;;;18.85;6.85;;;;;;;;;;6189973;23;20179;-87
2022/11/03 01:36:01;;;;;;;12.35;6.78;;;7.20;99.90;;;;;;6190825;23;20186;-88
2022/11/03 01:38:30;;;;;;;9.40;7.32;;;6.60;99.90;;;;;;6189672;23;20180;-88
2022/11/03 01:40:57;;;;;;;13.20;8.43;;;6.50;99.90;;;;;;6190489;23;20209;-87
2022/11/03 01:43:26;;;;;;;9.32;6.68;;;6.40;99.90;;;;;;6189634;23;20180;-88
2022/11/03 01:46:03;;;;;;;10.07;6.10;;;6.50;99.90;;;;;;6189950;23;20180;-88
2022/11/03 01:48:34;;;;;;;11.55;6.68;;;6.30;99.90;;;;;;6200482;23;20627;-87
2022/11/03 01:51:02;;;;;;;6.65;5.20;;;6.60;99.90;;;;;;6200798;23;20251;-87
2022/11/03 01:53:30;;;;;;;6.45;5.65;;;6.70;99.90;;;;;;6197737;23;20172;-87
2022/11/03 01:55:57;;;;;;;11.07;5.38;;;6.40;99.90;;;;;;6195073;23;20183;-87
2022/11/03 01:58:29;;;;;;;9.55;4.97;;;6.90;99.90;;;;;;6189584;23;20180;-87
2022/11/03 02:00:59;;;;;;;8.20;6.05;;;6.40;99.90;;;;;;6192539;23;20691;-88
2022/11/03 02:03:28;;;;;;;10.27;5.35;;;6.60;99.90;;;;;;6193308;23;20710;-87
2022/11/03 02:05:56;;;;;;;9.05;4.60;;;7.00;99.90;;;;;;6190429;23;20198;-87
2022/11/03 02:08:27;;;;;;;7.85;4.55;;;6.70;99.90;;;;;;6207876;23;20235;-87
2022/11/03 02:10:54;;;;;;;6.85;4.72;;;6.40;99.90;;;;;;6209862;23;20194;-87
2022/11/03 02:13:23;;;;;;;10.35;4.50;;;7.20;99.90;;;;;;6210937;23;20239;-87
2022/11/03 02:15:52;;;;;;;10.93;5.50;;;6.60;99.90;;;;;;6209548;23;20191;-88
2022/11/03 02:18:22;;;;;;;14.20;6.47;;;6.90;99.90;;;;;;6209009;23;20186;-88
2022/11/03 02:20:58;;;;;;;6.82;4.57;;;7.10;99.90;;;;;;6209022;23;20200;-88
2022/11/03 02:23:32;;;;;;;6.47;3.97;;;6.70;99.90;;;;;;6208403;23;20170;-88
2022/11/03 02:26:01;;;;;;;7.30;4.70;;;6.90;99.90;;;;;;6208047;23;20245;-88
2022/11/03 02:28:30;;;;;;;9.07;4.57;;;7.20;99.90;;;;;;6205932;23;20179;-87
2022/11/03 02:31:09;;;;;;;6.85;4.80;;;6.90;99.90;;;;;;6208211;23;20763;-87
2022/11/03 02:33:44;;;;;;;7.85;6.35;;;6.60;99.90;;;;;;6208789;23;20176;-87
2022/11/03 02:36:17;;;;;;;6.90;4.65;;;7.10;99.90;;;;;;6192124;23;20179;-88
2022/11/03 02:38:48;;;;;;;5.75;4.57;;;6.80;99.90;;;;;;6190494;23;20509;-88
2022/11/03 02:41:18;;;;;;;6.32;4.85;;;6.80;99.90;;;;;;6200034;23;20188;-88
2022/11/03 02:43:47;;;;;;;8.25;5.10;;;7.10;99.90;;;;;;6209586;23;20257;-88
2022/11/03 02:46:15;;;;;;;16.52;6.05;;;6.90;99.90;;;;;;6193059;23;20205;-88
2022/11/03 02:48:42;;;;;;;9.77;5.65;;;7.00;99.90;;;;;;6191917;23;20182;-87
2022/11/03 02:51:09;;;;;;;15.52;4.63;;;;;;;;;;6191315;23;20203;-87
2022/11/03 02:53:42;;;;;;;11.68;5.55;;;6.90;99.90;;;;;;6190105;23;20172;-88
2022/11/03 02:56:14;;;;;;;7.70;6.00;;;7.10;99.90;;;;;;6190688;23;20160;-88
2022/11/03 02:58:48;;;;;;;7.78;5.15;;;6.90;99.90;;;;;;6193082;23;20168;-88
2022/11/03 03:01:19;;;;;;;7.38;3.95;;;6.90;99.90;;;;;;6203043;23;20207;-88
2022/11/03 03:03:50;;;;;;;8.57;4.95;;;6.80;99.90;;;;;;6213924;23;20148;-88
2022/11/03 03:06:20;;;;;;;4.65;3.85;;;7.00;99.90;;;;;;6212468;23;20148;-87
2022/11/03 03:08:56;;;;;;;7.47;4.72;;;6.90;99.90;;;;;;6213456;23;20164;-87
2022/11/03 03:11:36;;;;;;;5.55;5.00;;;6.70;99.90;;;;;;6212618;23;20227;-87
2022/11/03 03:14:09;;;;;;;9.15;5.00;;;6.60;99.90;;;;;;6215270;23;20148;-87
2022/11/03 03:16:43;;;;;;;10.40;5.40;;;7.00;99.90;;;;;;6214005;23;20148;-88
2022/11/03 03:19:17;;;;;;;7.32;5.18;;;6.70;99.90;;;;;;6206945;23;20215;-87
2022/11/03 03:21:48;;;;;;;4.85;4.40;;;6.80;99.90;;;;;;6198310;23;20205;-88
2022/11/03 03:24:21;;;;;;;9.02;4.35;;;6.90;99.90;;;;;;6195378;23;20199;-88
2022/11/03 03:26:49;;;;;;;8.75;5.70;;;6.60;99.90;;;;;;6211443;23;20145;-90
2022/11/03 03:29:21;;;;;;;7.25;4.88;;;6.70;99.90;;;;;;6215274;23;20180;-90
2022/11/03 03:31:53;;;;;;;10.50;4.45;;;6.50;99.90;;;;;;6215024;23;20192;-88
2022/11/03 03:34:22;;;;;;;6.95;5.45;;;6.80;99.90;;;;;;6204514;23;20164;-88
2022/11/03 03:36:50;;;;;;;12.52;5.18;;;5.60;99.90;;;;;;6199769;23;20176;-88
2022/11/03 03:39:19;;;;;;;6.90;4.50;;;6.60;99.90;;;;;;6201798;23;20187;-87
2022/11/03 03:41:48;;;;;;;13.20;4.80;;;6.70;99.90;;;;;;6200192;23;20206;-87
2022/11/03 03:44:16;;;;;;;6.35;3.85;;;6.60;99.90;;;;;;6197912;23;20244;-88
2022/11/03 03:46:49;;;;;;;7.18;6.13;;;6.70;99.90;;;;;;6196794;23;20203;-86
2022/11/03 03:49:16;;;;;;;9.13;5.85;;;6.40;99.90;;;;;;6195742;23;20167;-86
2022/11/03 03:51:43;;;;;;;6.10;4.45;;;6.50;99.90;;;;;;6196089;23;20200;-86
2022/11/03 03:54:10;;;;;;;6.90;5.10;;;6.80;99.90;;;;;;6196306;23;20172;-86
2022/11/03 03:56:41;;;;;;;7.25;4.22;;;6.40;99.90;;;;;;6194965;23;20183;-86
2022/11/03 03:59:08;;;;;;;9.35;5.28;;;6.50;99.90;;;;;;6193847;23;20161;-86
2022/11/03 04:01:35;;;;;;;11.98;5.65;;;;;;;;;;6194611;23;20195;-87
2022/11/03 04:04:03;;;;;;;10.32;5.57;;;6.50;99.90;;;;;;6193893;23;20510;-87
2022/11/03 04:06:30;;;;;;;8.45;4.78;;;6.50;99.90;;;;;;6196143;23;20180;-87
2022/11/03 04:08:57;;;;;;;13.80;5.43;;;6.60;99.90;;;;;;6197276;23;20187;-87
2022/11/03 04:22:21;;;;;;;8.00;5.65;;;6.90;99.90;;;;;;6193159;23;20253;-87
2022/11/03 04:24:49;;;;;;;10.38;5.38;;;6.50;99.90;;;;;;6190603;23;20196;-87
2022/11/03 04:27:27;;;;;;;7.90;5.15;;;6.60;99.90;;;;;;6189884;23;20176;-87
2022/11/03 04:29:59;;;;;;;8.95;5.25;;;6.40;99.90;;;;;;6190529;23;20164;-87
2022/11/03 04:32:26;;;;;;;7.85;4.68;;;6.80;99.90;;;;;;6189662;23;20227;-87
2022/11/03 04:34:54;;;;;;;6.75;5.15;;;6.20;99.90;;;;;;6189710;23;20715;-86
2022/11/03 04:37:21;;;;;;;13.07;6.20;;;;;;;;;;6188017;23;20407;-87
2022/11/03 04:39:48;;;;;;;12.32;5.60;;;;;;;;;;6190084;23;20231;-87
2022/11/03 04:42:18;;;;;;;6.15;5.10;;;6.30;99.90;;;;;;6189627;23;20512;-87
2022/11/03 04:44:45;;;;;;;10.15;6.35;;;6.00;99.90;;;;;;6190349;23;20207;-87
2022/11/03 04:47:14;;;;;;;10.43;6.97;;;6.30;99.90;;;;;;6191643;23;20501;-88
2022/11/03 04:49:42;;;;;;;8.88;5.85;;;5.90;99.90;;;;;;6190806;23;20180;-87
2022/11/03 04:52:16;;;;;;;6.85;5.07;;;5.80;99.90;;;;;;6195666;23;20196;-88
2022/11/03 04:54:44;;;;;;;11.88;5.10;;;6.10;99.90;;;;;;6198411;23;20159;-87
2022/11/03 04:57:13;;;;;;;10.73;5.25;;;5.60;99.90;;;;;;6191791;23;20648;-87
2022/11/03 04:59:40;;;;;;;7.13;5.15;;;6.80;99.90;;;;;;6200142;23;20164;-86
2022/11/03 05:02:12;;;;;;;6.60;5.03;;;5.60;99.90;;;;;;6211809;23;20200;-87
2022/11/03 05:04:40;;;;;;;11.48;5.57;;;6.10;99.90;;;;;;6206615;23;20240;-86
2022/11/03 05:07:21;;;;;;;7.50;5.10;;;5.90;99.90;;;;;;6201634;23;20182;-87
2022/11/03 05:09:47;;;;;;;10.43;5.90;;;5.80;99.90;;;;;;6213928;23;20145;-87
2022/11/03 05:12:14;;;;;;;11.15;5.68;;;5.40;99.90;;;;;;6206293;23;20664;-87
2022/11/03 05:14:41;;;;;;;12.18;6.10;;;5.60;99.90;;;;;;6192899;23;20230;-87
2022/11/03 05:17:18;;;;;;;10.52;5.65;;;5.70;99.90;;;;;;6190826;23;20282;-87
2022/11/03 05:19:45;;;;;;;9.52;5.30;;;;;;;;;;6190345;23;20160;-87
2022/11/03 05:22:19;;;;;;;7.85;5.30;;;6.10;99.90;;;;;;6188436;23;20410;-87
2022/11/03 05:24:46;;;;;;;10.25;4.88;;;5.70;99.90;;;;;;6187549;23;20408;-87
2022/11/03 05:27:18;;;;;;;6.25;5.45;;;5.90;99.90;;;;;;6188697;23;20653;-87
2022/11/03 05:29:45;;;;;;;8.45;5.43;;;6.10;99.90;;;;;;6188547;23;20160;-87
2022/11/03 05:32:14;;;;;;;8.63;5.93;;;5.90;99.90;;;;;;6188714;23;20212;-87
2022/11/03 05:34:43;;;;;;;7.55;4.93;;;5.80;99.90;;;;;;6196062;23;20178;-87
2022/11/03 05:37:24;;;;;;;6.65;5.28;;;6.20;99.90;;;;;;6205634;23;20180;-87
2022/11/03 05:39:52;;;;;;;9.20;5.40;;;5.80;99.90;;;;;;6208036;23;20488;-87
2022/11/03 05:42:34;;;;;;;9.98;7.03;;;5.60;99.90;;;;;;6206431;23;20195;-87
2022/11/03 05:45:04;;;;;;;10.02;7.05;;;5.70;99.90;;;;;;6192850;23;20183;-87
2022/11/03 05:47:35;;;;;;;9.50;5.97;;;6.00;99.90;;;;;;6189429;23;20240;-87
2022/11/03 05:50:13;;;;;;;8.90;5.38;;;5.50;99.90;;;;;;6188881;23;20167;-87
2022/11/03 05:52:44;;;;;;;11.25;6.40;;;5.60;99.90;;;;;;6189111;23;20423;-87
2022/11/03 05:55:26;;;;;;;6.10;5.25;;;5.90;99.90;;;;;;6188976;23;20183;-86
2022/11/03 05:57:57;;;;;;;15.40;7.13;;;5.90;99.90;;;;;;6190586;23;20627;-87
2022/11/03 06:00:32;;;;;;;9.45;5.53;;;5.70;99.90;;;;;;6189180;23;20496;-86
2022/11/03 06:03:00;;;;;;;9.02;5.45;;;5.90;99.90;;;;;;6187960;23;20391;-86
2022/11/03 06:05:27;;;;;;;11.30;6.03;;;5.70;99.90;;;;;;6191136;23;20200;-86
2022/11/03 06:08:00;;;;;;;6.70;5.95;;;6.00;99.90;;;;;;6192139;23;20186;-86
2022/11/03 06:10:29;;;;;;;9.15;5.38;;;6.10;99.90;;;;;;6202215;23;20204;-86
2022/11/03 06:13:01;;;;;;;8.70;5.65;;;5.70;99.90;;;;;;6208974;23;20180;-86
2022/11/03 06:15:30;;;;;;;9.13;5.70;;;5.90;99.90;;;;;;6191950;23;20163;-87
2022/11/03 06:17:58;;;;;;;8.18;5.88;;;;;;;;;;6188157;23;20671;-87
2022/11/03 06:20:25;;;;;;;9.65;5.60;;;5.80;99.90;;;;;;6188565;23;20179;-85
2022/11/03 06:22:57;;;;;;;9.98;6.00;;;6.80;99.90;;;;;;6188914;23;20184;-87
2022/11/03 06:25:29;;;;;;;10.68;5.40;;;5.90;99.90;;;;;;6189775;23;20192;-88
2022/11/03 06:28:00;;;;;;;21.08;5.60;;;5.90;99.90;;;;;;6190002;23;20242;-87
2022/11/03 06:30:29;;;;;;;5.95;4.82;;;6.10;99.90;;;;;;6189419;23;20537;-88
2022/11/03 06:32:59;;;;;;;9.75;5.88;;;6.10;99.90;;;;;;6191170;23;20167;-88
2022/11/03 06:35:26;;;;;;;10.18;5.40;;;6.10;99.90;;;;;;6189994;23;20182;-88
2022/11/03 06:37:53;;;;;;;13.23;6.50;;;;;;;;;;6188964;23;20183;-88
2022/11/03 06:40:34;;;;;;;11.60;5.05;;;6.10;99.90;;;;;;6190871;23;20176;-88
2022/11/03 06:43:13;;;;;;;9.55;5.97;;;6.20;99.90;;;;;;6212017;23;20195;-88
2022/11/03 06:45:48;;;;;;;7.57;5.07;;;6.00;99.90;;;;;;6212669;23;20235;-89
2022/11/03 06:48:21;;;;;;;10.70;6.45;;;6.00;99.90;;;;;;6212016;23;20151;-88
2022/11/03 06:50:48;;;;;;;10.77;5.55;;;6.30;99.90;;;;;;6211819;23;20187;-88
2022/11/03 06:53:24;;;;;;;9.60;5.22;;;6.10;99.90;;;;;;6213113;23;20164;-88
2022/11/03 06:56:01;;;;;;;11.15;5.90;;;;;;;;;;6210598;23;20607;-87
2022/11/03 06:58:31;;;;;;;11.05;6.53;;;6.00;99.90;;;;;;6191130;23;20235;-88
2022/11/03 07:01:01;;;;;;;12.80;5.78;;;6.00;99.90;;;;;;6192936;23;20204;-87
2022/11/03 07:03:32;;;;;;;14.43;5.97;;;5.90;99.90;;;;;;6192856;23;20180;-88
2022/11/03 07:06:01;;;;;;;10.02;6.13;;;;;;;;;;6194107;23;20215;-88
2022/11/03 07:08:38;;;;;;;8.63;5.13;;;5.90;99.90;;;;;;6214373;23;20167;-89
2022/11/03 07:11:14;;;;;;;8.60;5.30;;;5.90;99.90;;;;;;6215757;23;20204;-91
2022/11/03 07:13:42;;;;;;;9.23;5.57;;;;;;;;;;6210553;23;20160;-88
2022/11/03 07:16:14;;;;;;;7.18;4.97;;;6.00;99.90;;;;;;6195416;23;20176;-89
2022/11/03 07:18:42;;;;;;;13.07;7.38;;;6.10;99.90;;;;;;6206757;23;20164;-87
2022/11/03 07:21:36;;;;;;;13.00;6.32;;;6.10;99.90;;;;;;6205975;23;20207;-88
2022/11/03 07:24:12;;;;;;;9.20;6.00;;;6.00;99.90;;;;;;6191768;23;20255;-88
2022/11/03 07:26:41;;;;;;;8.27;6.95;;;;;;;;;;6194080;23;20197;-89
2022/11/03 07:29:12;;;;;;;15.98;5.88;;;6.50;99.90;;;;;;6196281;23;20262;-89
2022/11/03 07:31:39;;;;;;;14.68;6.38;;;;;;;;;;6202601;23;20194;-89
2022/11/03 07:34:13;;;;;;;7.57;5.15;;;6.70;99.90;;;;;;6211081;23;20182;-88
2022/11/03 07:36:40;;;;;;;11.75;6.90;;;;;;;;;;6197019;23;20164;-89
2022/11/03 07:39:21;;;;;;;6.13;5.13;;;6.80;99.90;;;;;;6193114;23;20230;-89
2022/11/03 07:41:50;;;;;;;6.88;5.60;;;;;;;;;;6191465;23;20200;-87
2022/11/03 07:44:20;;;;;;;8.93;5.30;;;7.00;99.90;;;;;;6193024;23;20260;-89
2022/11/03 07:46:48;;;;;;;10.20;5.60;;;;;;;;;;6191673;23;20180;-89
2022/11/03 07:49:28;;;;;;;9.40;5.38;;;7.20;89.10;;;;;;6192582;23;20183;-89
2022/11/03 07:51:56;;;;;;;11.82;6.13;;;;;;;;;;6203824;23;20186;-88
2022/11/03 07:54:28;;;;;;;10.90;5.95;;;7.40;21.00;;;;;;6215274;23;20219;-93
2022/11/03 07:56:58;;;;;;;9.05;5.70;;;7.50;1.00;;;;;;6214640;23;20171;-92
2022/11/03 07:59:30;;;;;;;6.63;5.25;;;7.50;1.00;;;;;;6215082;23;20175;-92
2022/11/03 08:01:58;;;;;;;10.70;5.40;;;7.40;1.00;;;;;;6195115;23;20196;-90
2022/11/03 08:04:27;;;;;;;11.23;5.10;;;7.70;1.00;;;;;;6191031;23;20636;-88
2022/11/03 08:06:54;;;;;;;7.10;4.70;;;7.70;1.00;;;;;;6192002;23;20539;-88
2022/11/03 08:09:21;;;;;;;5.53;5.00;;;7.60;1.00;;;;;;6192151;23;20740;-88
2022/11/03 08:11:48;;;;;;;7.82;4.75;;;;;;;;;;6211152;23;20218;-88
2022/11/03 08:14:16;;;;;;;6.38;4.55;;;7.80;1.00;;;;;;6212938;23;20192;-89
2022/11/03 08:16:43;;;;;;;10.90;4.85;;;7.60;99.90;;;;;;6213022;23;20211;-89
2022/11/03 08:19:11;;;;;;;12.10;4.85;;;8.50;99.90;;;;;;6212987;23;20208;-88
2022/11/03 08:21:38;;;;;;;5.38;4.45;;;8.10;99.90;;;;;;6207464;23;20207;-88
2022/11/03 08:24:05;;;;;;;5.10;4.00;;;8.10;1.00;;;;;;6193234;23;20279;-89
2022/11/03 08:26:32;;;;;;;5.93;4.95;;;8.30;99.90;;;;;;6201885;23;20466;-89
2022/11/03 08:28:59;;;;;;;9.40;4.00;;;8.30;1.00;;;;;;6212989;23;20199;-90
2022/11/03 08:31:27;;;;;;;7.15;4.65;;;8.10;99.90;;;;;;6213270;23;20196;-88
2022/11/03 08:33:54;;;;;;;7.50;3.55;;;;;;;;;;6214577;23;20224;-92
2022/11/03 08:36:21;;;;;;;6.90;4.30;;;;;;;;;;6214844;23;20191;-92
2022/11/03 08:38:49;;;;;;;7.40;4.00;;;;;;;;;;6214414;23;20382;-90
2022/11/03 08:41:16;;;;;;;7.13;4.30;;;8.60;1.00;;;;;;6214577;23;20187;-90
2022/11/03 08:43:43;;;;;;;6.17;4.27;;;8.80;1.00;;;;;;6214559;23;20445;-88
2022/11/03 08:46:10;;;;;;;7.40;4.40;;;;;;;;;;6214415;23;20474;-93
2022/11/03 08:48:38;;;;;;;7.90;4.07;;;8.90;1.00;;;;;;6214670;23;20419;-92
2022/11/03 08:51:07;;;;;;;3.93;3.53;;;8.80;99.90;;;;;;6214510;23;20407;-92
2022/11/03 08:53:34;;;;;;;6.00;4.07;;;8.40;1.00;;;;;;6214657;23;20402;-92
2022/11/03 08:56:01;;;;;;;6.57;4.27;;;8.90;1.00;;;;;;6214275;23;20156;-93
2022/11/03 08:58:27;;;;;;;4.73;3.70;;;8.70;99.90;;;;;;6214672;23;20458;-92
2022/11/03 09:00:54;;;;;;;10.50;4.40;;;;;;;;;;6214456;23;20435;-90
2022/11/03 09:03:21;;;;;;;10.70;3.43;;;8.90;99.90;;;;;;6214227;23;20406;-88
2022/11/03 09:05:50;;;;;;;4.67;3.90;;;9.20;99.90;;;;;;6209881;23;20439;-88
2022/11/03 09:08:17;;;;;;;4.80;3.70;;;;;;;;;;6203379;23;20507;-87
2022/11/03 09:10:44;;;;;;;6.90;2.90;;;9.00;99.90;;;;;;6204489;23;20441;-88
2022/11/03 09:13:11;;;;;;;5.47;3.13;;;9.50;1.00;;;;;;6196936;23;20419;-87
2022/11/03 09:15:39;;;;;;;7.83;3.77;;;;;;;;;;6198560;23;20407;-88
2022/11/03 09:18:06;;;;;;;7.50;3.80;;;9.70;1.00;;;;;;6194649;23;20408;-88
2022/11/03 09:20:33;;;;;;;4.77;3.00;;;9.60;99.90;;;;;;6194908;23;20438;-89
2022/11/03 09:23:01;;;;;;;5.23;3.53;;;9.60;99.90;;;;;;6194294;23;20410;-89
2022/11/03 09:25:28;;;;;;;5.40;4.30;;;;;;;;;;6207859;23;20411;-91
2022/11/03 09:27:55;;;;;;;7.47;4.90;;;;;;;;;;6213942;23;20386;-92
2022/11/03 09:30:22;;;;;;;11.17;4.00;;;9.20;99.90;;;;;;6214305;23;20451;-92
2022/11/03 09:32:49;;;;;;;4.03;3.43;;;9.30;99.90;;;;;;6214297;23;20410;-90
2022/11/03 09:35:16;;;;;;;3.77;2.83;;;9.50;1.00;;;;;;6211849;23;20446;-87
2022/11/03 09:37:43;;;;;;;5.63;3.80;;;9.50;99.90;;;;;;6210747;23;20383;-87
2022/11/03 09:40:15;;;;;;;6.07;3.27;;;9.90;1.00;;;;;;6205697;23;20390;-88
2022/11/03 09:42:43;;;;;;;10.20;4.30;;;9.40;1.00;;;;;;6201411;23;20385;-88
2022/11/03 09:45:10;;;;;;;6.80;3.23;;;9.70;99.90;;;;;;6199383;23;20386;-87
2022/11/03 09:47:39;;;;;;;8.70;3.50;;;10.00;1.00;;;;;;6202735;23;20414;-87
2022/11/03 09:50:11;;;;;;;7.40;3.83;;;9.80;99.90;;;;;;6204724;23;20404;-88
2022/11/03 09:52:38;;;;;;;5.47;3.63;;;;;;;;;;6202446;23;20409;-88
2022/11/03 09:55:24;;;;;;;5.80;3.80;;;10.30;1.00;;;;;;6198155;23;20416;-88
2022/11/03 09:57:52;;;;;;;9.83;4.50;;;10.10;99.90;;;;;;6212578;23;20374;-90
2022/11/03 10:00:22;;;;;;;7.83;3.70;;;10.20;37.10;;;;;;6208554;23;20454;-88
2022/11/03 10:02:50;;;;;;;7.00;4.00;;;;;;;;;;6201217;23;20410;-89
2022/11/03 10:05:23;;;;;;;10.73;4.93;;;10.40;1.00;;;;;;6196118;23;20981;-88
2022/11/03 10:07:51;;;;;;;5.53;3.67;;;10.40;1.00;;;;;;6194451;23;20506;-88
2022/11/03 10:10:21;;;;;;;6.70;3.57;;;10.50;1.00;;;;;;6194979;23;20486;-88
2022/11/03 10:12:50;;;;;;;5.20;4.53;;;10.60;1.00;;;;;;6201459;23;20537;-87
2022/11/03 10:15:19;;;;;;;5.63;3.33;;;10.60;1.00;;;;;;6196728;23;20768;-89
2022/11/03 10:17:49;;;;;;;10.60;4.47;;;10.70;1.00;;;;;;6201629;23;20403;-90
2022/11/03 10:20:18;;;;;;;10.17;3.47;;;10.70;1.00;;;;;;6199676;23;20392;-90
2022/11/03 10:22:46;;;;;;;6.37;3.70;;;10.70;99.90;;;;;;6201073;23;20407;-89
2022/11/03 10:25:35;;;;;;;6.40;2.93;;;10.60;99.90;;;;;;6211248;23;20431;-89
2022/11/03 10:28:16;;;;;;;5.07;3.27;;;11.10;1.00;;;;;;6191276;23;20399;-89
2022/11/03 10:30:51;;;;;;;6.90;3.13;;;11.10;1.00;;;;;;6213820;23;20422;-90
2022/11/03 10:33:29;;;;;;;9.97;2.93;;;10.80;1.00;;;;;;6202118;23;20431;-89
2022/11/03 10:35:58;;;;;;;5.70;3.50;;;11.20;99.90;;;;;;6196663;23;20435;-89
2022/11/03 10:38:27;;;;;;;7.30;3.80;;;11.30;99.90;;;;;;6195696;23;20407;-89
2022/11/03 10:40:57;;;;;;;7.90;3.17;;;;;;;;;;6196680;23;20507;-89
2022/11/03 10:43:39;;;;;;;6.30;3.40;;;;;;;;;;6199476;23;20728;-89
2022/11/03 10:46:13;;;;;;;7.50;2.43;;;;;;;;;;6200434;23;20439;-88
2022/11/03 10:48:41;;;;;;;6.37;4.03;;;;;;;;;;6203881;23;20403;-88
2022/11/03 10:51:18;;;;;;;10.80;4.40;;;;;;;;;;6203037;23;20442;-88
2022/11/03 10:53:45;;;;;;;5.47;2.90;;;;;;;;;;6206025;23;20410;-90
2022/11/03 10:56:14;;;;;;;3.87;3.10;;;;;;;;;;6204430;23;20408;-88
2022/11/03 10:58:43;;;;;;;4.57;3.77;;;;;;;;;;6203777;23;20405;-89
2022/11/03 11:01:13;;;;;;;4.70;3.60;;;11.70;99.90;;;;;;6203709;23;20930;-89
2022/11/03 11:03:43;;;;;;;6.67;4.30;;;;;;;;;;6203514;23;20396;-89
2022/11/03 11:06:17;;;;;;;5.80;3.90;;;;;;;;;;6200573;23;20443;-89
2022/11/03 11:08:45;;;;;;;6.90;3.07;;;;;;;;;;6202255;23;20434;-90
2022/11/03 11:11:16;;;;;;;9.47;4.27;;;;;;;;;;6197151;23;20415;-89
2022/11/03 11:13:45;;;;;;;5.60;3.40;;;;;;;;;;6194015;23;20391;-89
2022/11/03 11:16:53;;;;;;;5.90;4.10;;;11.80;99.90;;;;;;6197493;23;20402;-89
2022/11/03 11:19:21;;;;;;;4.77;3.43;;;;;;;;;;6196507;23;20713;-89
2022/11/03 11:21:59;;;;;;;5.27;2.87;;;11.80;99.90;;;;;;6193681;23;20739;-89
2022/11/03 11:25:02;;;;;;;14.17;4.40;;;11.90;99.90;;;;;;6198922;23;20439;-89
2022/11/03 11:27:58;;;;;;;10.67;3.47;;;10.90;1.00;;;;;;6214584;23;20433;-92
2022/11/03 11:33:53;;;;;;;8.00;3.40;;;11.80;99.90;;;;;;6148726;23;20418;-91
2022/11/03 11:36:28;;;;;;;6.90;3.10;;;11.80;99.90;;;;;;6211907;23;20455;-89
2022/11/03 11:39:00;;;;;;;4.23;3.90;;;;;;;;;;6214318;23;20414;-90
2022/11/03 11:42:08;;;;;;;5.97;3.10;;;11.90;99.90;;;;;;6208353;23;20453;-89
2022/11/03 11:44:50;;;;;;;5.80;3.33;;;;;;;;;;6197699;23;20438;-89
2022/11/03 11:47:42;;;;;;;5.47;2.40;;;12.00;99.90;;;;;;6191659;23;20459;-89
2022/11/03 11:50:23;;;;;;;8.70;3.50;;;11.60;1.00;;;;;;6193249;23;20411;-89
2022/11/03 11:53:20;;;;;;;5.10;3.00;;;12.00;99.90;;;;;;6192157;23;20966;-89
2022/11/03 11:55:53;;;;;;;5.07;3.37;;;12.00;99.90;;;;;;6193191;23;20458;-89
2022/11/03 11:58:41;;;;;;;5.97;3.20;;;11.90;99.90;;;;;;6194730;23;20416;-89
2022/11/03 12:01:23;;;;;;;3.00;2.43;;;12.00;99.90;;;;;;6194956;23;20465;-89
2022/11/03 12:03:55;;;;;;;5.30;2.97;;;12.10;99.90;;;;;;6197688;23;20398;-89
2022/11/03 12:06:33;;;;;;;9.60;3.30;;;12.00;99.90;;;;;;6193102;23;20411;-91
2022/11/03 12:09:10;;;;;;;6.53;3.40;;;;;;;;;;6192424;23;20890;-90
2022/11/03 12:11:44;;;;;;;4.37;3.27;;;12.00;99.90;;;;;;6192033;23;20482;-89
2022/11/03 12:14:33;;;;;;;5.47;3.30;;;;;;;;;;6195754;23;20462;-89
2022/11/03 12:17:31;;;;;;;5.20;3.23;;;11.90;99.90;;;;;;6211808;23;20415;-89
2022/11/03 12:19:58;;;;;;;9.20;2.60;;;;;;;;;;6206107;23;20431;-89
2022/11/03 12:22:41;;;;;;;5.43;3.30;;;11.90;99.90;;;;;;6193791;23;20922;-89
2022/11/03 12:25:32;;;;;;;4.37;3.50;;;11.90;99.90;;;;;;6193248;23;20729;-89
2022/11/03 12:27:59;;;;;;;5.37;2.90;;;;;;;;;;6195690;23;20438;-89
2022/11/03 12:30:27;;;;;;;5.33;2.70;;;;;;;;;;6198046;23;20411;-89
2022/11/03 12:32:56;;;;;;;6.23;3.23;;;12.00;99.90;;;;;;6193249;23;20399;-88
2022/11/03 12:35:39;;;;;;;8.87;2.93;;;;;;;;;;6200686;23;20417;-89
2022/11/03 12:38:06;;;;;;;5.47;2.97;;;12.00;99.90;;;;;;6212704;23;20415;-89
2022/11/03 12:40:33;;;;;;;4.87;3.50;;;;;;;;;;6213107;23;20467;-89
2022/11/03 12:43:00;;;;;;;7.60;3.50;;;;;;;;;;6203894;23;20481;-89
2022/11/03 12:45:27;;;;;;;8.77;3.70;;;;;;;;;;6193655;23;20455;-88
2022/11/03 12:47:56;;;;;;;6.23;3.20;;;;;;;;;;6191461;23;20526;-90
2022/11/03 12:50:23;;;;;;;7.53;3.97;;;;;;;;;;6192201;23;20378;-90
2022/11/03 12:52:50;;;;;;;4.50;3.37;;;12.70;1.00;;;;;;6191962;23;20727;-89
2022/11/03 12:55:17;;;;;;;8.50;2.77;;;;;;;;;;6191153;23;20466;-89
2022/11/03 12:57:45;;;;;;;6.43;3.10;;;;;;;;;;6190741;23;20490;-90
2022/11/03 13:00:13;;;;;;;4.60;2.67;;;12.20;99.90;;;;;;6190546;23;20982;-89
2022/11/03 13:02:40;;;;;;;6.33;2.93;;;12.70;1.00;;;;;;6202648;23;20410;-90
2022/11/03 13:05:09;;;;;;;4.73;3.03;;;12.50;99.90;;;;;;6194277;23;20946;-89
2022/11/03 13:07:35;;;;;;;9.47;3.00;;;12.30;1.00;;;;;;6192095;23;20439;-89
2022/11/03 13:10:03;;;;;;;4.50;3.70;;;12.20;99.90;;;;;;6194097;23;20489;-89
2022/11/03 13:12:34;;;;;;;6.87;3.10;;;12.20;1.00;;;;;;6194791;23;20465;-89
2022/11/03 13:15:02;;;;;;;7.83;3.70;;;12.50;1.00;;;;;;6208697;23;20415;-89
2022/11/03 13:17:29;;;;;;;7.57;3.03;;;12.20;99.90;;;;;;6182062;23;20400;-87
2022/11/03 13:19:56;;;;;;;6.70;3.30;;;;;;;;;;6182263;23;20416;-88
2022/11/03 13:22:24;;;;;;;3.23;2.33;;;12.70;1.00;;;;;;6170386;23;20491;-89
2022/11/03 13:24:51;;;;;;;9.70;3.17;;;;;;;;;;6183585;23;20422;-90
2022/11/03 13:27:18;;;;;;;6.47;3.90;;;;;;;;;;6183070;23;20519;-90
2022/11/03 13:29:45;;;;;;;5.53;3.30;;;12.20;1.00;;;;;;6184327;23;20428;-93
2022/11/03 13:32:12;;;;;;;5.30;2.97;;;;;;;;;;6176832;23;20738;-89
2022/11/03 13:34:39;;;;;;;8.00;3.10;;;;;;;;;;6163651;23;20512;-89
2022/11/03 13:37:06;;;;;;;7.60;3.40;;;;;;;;;;6161178;23;20912;-89
2022/11/03 13:39:35;;;;;;;5.37;3.40;;;12.50;99.90;;;;;;6161553;23;20408;-89
2022/11/03 13:42:02;;;;;;;6.60;3.80;;;12.50;99.90;;;;;;6162244;23;20490;-89
2022/11/03 13:44:29;;;;;;;6.87;3.70;;;;;;;;;;6164699;23;20762;-90
2022/11/03 13:46:56;;;;;;;7.03;3.60;;;12.70;1.00;;;;;;6164721;23;20447;-89
2022/11/03 13:49:23;;;;;;;5.90;3.53;;;;;;;;;;6164841;23;20408;-89
2022/11/03 13:51:51;;;;;;;7.40;4.23;;;;;;;;;;6163147;23;20454;-89
2022/11/03 13:54:18;;;;;;;4.77;4.30;;;;;;;;;;6162147;23;20436;-89